首页
METAR-TAF:

METAR-TAF

机场 :

河狸溪, 育康省, 加拿大

纬度: 62-25N, 经度: 140-52W, 海拔: 649米

当前天气观测

该预报发布于11小时和54分钟前的22:00 UTC
风速13节,风向北转西北,有时为22节阵风
温度 11°C
湿度 43%
气压 1026 hPa
能見度: 48.3公里
多云层高于5000英尺

METAR: CYXQ 172200Z 33013G22KT 30SM BKN050 11/M01 A3030 RMK CU7 LAST STFD OBS/NXT 181600Z SLP285

时间: 02:54 (09:54 UTC)


TAF: 丢失

超过4000个机场的气象观测和天气预报(METAR&TAF报告)。

可查询的气象台以黄色和红色小点在地图上表示。

将鼠标移到小点上方,可查看气象台名称。

然后点击查看天气观测和预报。

如需切换地图:点击带黑十字的绿色按钮放大地图;点击带横线的绿色按钮缩小地图;或者点击绿色箭头查看邻近地区的地图。


METAR-TAF: